sensor_id;sensor_type;location;lat;lon;timestamp;P1;durP1;ratioP1;P2;durP2;ratioP2
6089;SDS011;3073;42.660;23.316;2023-04-07T00:01:56;11.03;;;7.73;;
6089;SDS011;3073;42.660;23.316;2023-04-07T00:04:27;16.70;;;7.50;;
6089;SDS011;3073;42.660;23.316;2023-04-07T00:06:54;11.83;;;8.13;;
6089;SDS011;3073;42.660;23.316;2023-04-07T00:09:21;12.77;;;7.37;;
6089;SDS011;3073;42.660;23.316;2023-04-07T00:11:48;12.67;;;8.60;;
6089;SDS011;3073;42.660;23.316;2023-04-07T00:14:16;11.10;;;7.20;;
6089;SDS011;3073;42.660;23.316;2023-04-07T00:16:44;12.10;;;8.63;;
6089;SDS011;3073;42.660;23.316;2023-04-07T00:19:11;10.53;;;6.73;;
6089;SDS011;3073;42.660;23.316;2023-04-07T00:21:38;11.63;;;7.47;;
6089;SDS011;3073;42.660;23.316;2023-04-07T00:24:05;23.03;;;8.23;;
6089;SDS011;3073;42.660;23.316;2023-04-07T00:26:33;15.80;;;7.43;;
6089;SDS011;3073;42.660;23.316;2023-04-07T00:29:01;17.63;;;8.23;;
6089;SDS011;3073;42.660;23.316;2023-04-07T00:31:28;12.40;;;7.13;;
6089;SDS011;3073;42.660;23.316;2023-04-07T00:33:56;9.67;;;7.60;;
6089;SDS011;3073;42.660;23.316;2023-04-07T00:36:23;11.60;;;8.07;;
6089;SDS011;3073;42.660;23.316;2023-04-07T00:38:50;12.97;;;8.03;;
6089;SDS011;3073;42.660;23.316;2023-04-07T00:41:17;12.60;;;8.73;;
6089;SDS011;3073;42.660;23.316;2023-04-07T00:43:44;12.97;;;7.43;;
6089;SDS011;3073;42.660;23.316;2023-04-07T00:46:11;22.40;;;7.20;;
6089;SDS011;3073;42.660;23.316;2023-04-07T00:48:38;10.23;;;7.57;;
6089;SDS011;3073;42.660;23.316;2023-04-07T00:51:06;10.70;;;7.37;;
6089;SDS011;3073;42.660;23.316;2023-04-07T00:53:33;11.77;;;7.10;;
6089;SDS011;3073;42.660;23.316;2023-04-07T00:56:00;10.90;;;7.37;;
6089;SDS011;3073;42.660;23.316;2023-04-07T00:58:26;17.00;;;7.30;;
6089;SDS011;3073;42.660;23.316;2023-04-07T01:00:54;11.23;;;7.00;;
6089;SDS011;3073;42.660;23.316;2023-04-07T01:03:30;10.00;;;6.50;;
6089;SDS011;3073;42.660;23.316;2023-04-07T01:06:01;13.30;;;6.90;;
6089;SDS011;3073;42.660;23.316;2023-04-07T01:08:40;9.30;;;6.73;;
6089;SDS011;3073;42.660;23.316;2023-04-07T01:11:16;10.87;;;7.00;;
6089;SDS011;3073;42.660;23.316;2023-04-07T01:13:50;10.07;;;7.07;;
6089;SDS011;3073;42.660;23.316;2023-04-07T01:16:20;24.83;;;7.83;;
6089;SDS011;3073;42.660;23.316;2023-04-07T01:18:51;12.43;;;7.10;;
6089;SDS011;3073;42.660;23.316;2023-04-07T01:21:20;11.93;;;6.20;;
6089;SDS011;3073;42.660;23.316;2023-04-07T01:24:02;9.50;;;6.70;;
6089;SDS011;3073;42.660;23.316;2023-04-07T01:26:42;11.97;;;7.63;;
6089;SDS011;3073;42.660;23.316;2023-04-07T01:29:31;11.87;;;7.17;;
6089;SDS011;3073;42.660;23.316;2023-04-07T01:32:04;9.93;;;6.77;;
6089;SDS011;3073;42.660;23.316;2023-04-07T01:34:33;10.37;;;6.70;;
6089;SDS011;3073;42.660;23.316;2023-04-07T01:37:02;12.67;;;6.60;;
6089;SDS011;3073;42.660;23.316;2023-04-07T01:39:30;12.17;;;7.37;;
6089;SDS011;3073;42.660;23.316;2023-04-07T01:41:59;16.43;;;7.57;;
6089;SDS011;3073;42.660;23.316;2023-04-07T01:44:30;13.43;;;7.77;;
6089;SDS011;3073;42.660;23.316;2023-04-07T01:46:58;13.10;;;7.67;;
6089;SDS011;3073;42.660;23.316;2023-04-07T01:49:26;10.27;;;6.90;;
6089;SDS011;3073;42.660;23.316;2023-04-07T01:51:55;10.70;;;7.30;;
6089;SDS011;3073;42.660;23.316;2023-04-07T01:54:23;9.23;;;6.83;;
6089;SDS011;3073;42.660;23.316;2023-04-07T01:56:53;8.43;;;6.57;;
6089;SDS011;3073;42.660;23.316;2023-04-07T01:59:20;11.57;;;6.60;;
6089;SDS011;3073;42.660;23.316;2023-04-07T02:01:48;10.53;;;7.07;;
6089;SDS011;3073;42.660;23.316;2023-04-07T02:04:18;9.33;;;6.40;;
6089;SDS011;3073;42.660;23.316;2023-04-07T02:06:51;10.70;;;6.60;;
6089;SDS011;3073;42.660;23.316;2023-04-07T02:09:21;11.53;;;6.57;;
6089;SDS011;3073;42.660;23.316;2023-04-07T02:11:52;9.97;;;6.33;;
6089;SDS011;3073;42.660;23.316;2023-04-07T02:14:23;11.57;;;7.10;;
6089;SDS011;3073;42.660;23.316;2023-04-07T02:16:52;8.80;;;6.10;;
6089;SDS011;3073;42.660;23.316;2023-04-07T02:19:20;11.40;;;6.30;;
6089;SDS011;3073;42.660;23.316;2023-04-07T02:21:47;11.63;;;6.70;;
6089;SDS011;3073;42.660;23.316;2023-04-07T02:24:18;11.63;;;6.50;;
6089;SDS011;3073;42.660;23.316;2023-04-07T02:26:46;8.90;;;6.73;;
6089;SDS011;3073;42.660;23.316;2023-04-07T02:29:13;15.10;;;6.57;;
6089;SDS011;3073;42.660;23.316;2023-04-07T02:31:40;9.13;;;5.60;;
6089;SDS011;3073;42.660;23.316;2023-04-07T02:34:08;11.00;;;6.37;;
6089;SDS011;3073;42.660;23.316;2023-04-07T02:36:35;9.83;;;6.20;;
6089;SDS011;3073;42.660;23.316;2023-04-07T02:39:02;9.50;;;6.00;;
6089;SDS011;3073;42.660;23.316;2023-04-07T02:41:29;9.03;;;6.30;;
6089;SDS011;3073;42.660;23.316;2023-04-07T02:43:56;13.23;;;7.00;;
6089;SDS011;3073;42.660;23.316;2023-04-07T02:46:22;9.00;;;6.60;;
6089;SDS011;3073;42.660;23.316;2023-04-07T02:48:49;10.40;;;6.03;;
6089;SDS011;3073;42.660;23.316;2023-04-07T02:51:18;9.00;;;6.87;;
6089;SDS011;3073;42.660;23.316;2023-04-07T02:53:45;11.53;;;6.23;;
6089;SDS011;3073;42.660;23.316;2023-04-07T02:56:12;11.10;;;6.80;;
6089;SDS011;3073;42.660;23.316;2023-04-07T02:58:38;11.03;;;6.67;;
6089;SDS011;3073;42.660;23.316;2023-04-07T03:01:05;9.60;;;5.80;;
6089;SDS011;3073;42.660;23.316;2023-04-07T03:03:32;8.80;;;5.97;;
6089;SDS011;3073;42.660;23.316;2023-04-07T03:05:59;10.60;;;5.97;;
6089;SDS011;3073;42.660;23.316;2023-04-07T03:08:29;10.83;;;6.67;;
6089;SDS011;3073;42.660;23.316;2023-04-07T03:10:55;10.23;;;6.20;;
6089;SDS011;3073;42.660;23.316;2023-04-07T03:13:22;10.13;;;5.40;;
6089;SDS011;3073;42.660;23.316;2023-04-07T03:15:49;16.10;;;6.97;;
6089;SDS011;3073;42.660;23.316;2023-04-07T03:18:16;10.60;;;6.00;;
6089;SDS011;3073;42.660;23.316;2023-04-07T03:20:43;8.63;;;6.30;;
6089;SDS011;3073;42.660;23.316;2023-04-07T03:23:11;16.93;;;6.77;;
6089;SDS011;3073;42.660;23.316;2023-04-07T03:25:39;9.80;;;5.67;;
6089;SDS011;3073;42.660;23.316;2023-04-07T03:28:09;9.70;;;5.93;;
6089;SDS011;3073;42.660;23.316;2023-04-07T03:30:38;9.03;;;5.97;;
6089;SDS011;3073;42.660;23.316;2023-04-07T03:33:07;10.47;;;6.00;;
6089;SDS011;3073;42.660;23.316;2023-04-07T03:35:34;9.10;;;6.40;;
6089;SDS011;3073;42.660;23.316;2023-04-07T03:38:01;9.23;;;6.10;;
6089;SDS011;3073;42.660;23.316;2023-04-07T03:40:28;7.57;;;5.50;;
6089;SDS011;3073;42.660;23.316;2023-04-07T03:42:56;9.17;;;5.83;;
6089;SDS011;3073;42.660;23.316;2023-04-07T03:45:23;8.13;;;5.77;;
6089;SDS011;3073;42.660;23.316;2023-04-07T03:47:50;10.33;;;5.50;;
6089;SDS011;3073;42.660;23.316;2023-04-07T03:50:18;10.77;;;5.80;;
6089;SDS011;3073;42.660;23.316;2023-04-07T03:52:45;8.97;;;5.70;;
6089;SDS011;3073;42.660;23.316;2023-04-07T03:55:12;11.60;;;6.30;;
6089;SDS011;3073;42.660;23.316;2023-04-07T03:57:40;21.30;;;7.00;;
6089;SDS011;3073;42.660;23.316;2023-04-07T04:00:09;8.17;;;5.67;;
6089;SDS011;3073;42.660;23.316;2023-04-07T04:02:42;11.17;;;5.87;;
6089;SDS011;3073;42.660;23.316;2023-04-07T04:05:09;9.57;;;6.10;;
6089;SDS011;3073;42.660;23.316;2023-04-07T04:07:36;7.27;;;5.93;;
6089;SDS011;3073;42.660;23.316;2023-04-07T04:10:03;14.13;;;6.00;;
6089;SDS011;3073;42.660;23.316;2023-04-07T04:12:31;8.67;;;5.53;;
6089;SDS011;3073;42.660;23.316;2023-04-07T04:15:01;9.67;;;5.80;;
6089;SDS011;3073;42.660;23.316;2023-04-07T04:17:29;10.90;;;6.50;;
6089;SDS011;3073;42.660;23.316;2023-04-07T04:20:01;8.00;;;5.43;;
6089;SDS011;3073;42.660;23.316;2023-04-07T04:22:28;11.40;;;6.10;;
6089;SDS011;3073;42.660;23.316;2023-04-07T04:24:55;9.20;;;6.20;;
6089;SDS011;3073;42.660;23.316;2023-04-07T04:27:23;10.20;;;6.00;;
6089;SDS011;3073;42.660;23.316;2023-04-07T04:29:50;8.97;;;5.87;;
6089;SDS011;3073;42.660;23.316;2023-04-07T04:32:18;9.03;;;5.77;;
6089;SDS011;3073;42.660;23.316;2023-04-07T04:34:49;11.33;;;6.27;;
6089;SDS011;3073;42.660;23.316;2023-04-07T04:37:19;8.20;;;5.63;;
6089;SDS011;3073;42.660;23.316;2023-04-07T04:39:46;10.73;;;6.37;;
6089;SDS011;3073;42.660;23.316;2023-04-07T04:42:13;6.73;;;5.20;;
6089;SDS011;3073;42.660;23.316;2023-04-07T04:44:40;7.87;;;5.77;;
6089;SDS011;3073;42.660;23.316;2023-04-07T04:47:07;9.50;;;5.70;;
6089;SDS011;3073;42.660;23.316;2023-04-07T04:49:34;12.20;;;6.50;;
6089;SDS011;3073;42.660;23.316;2023-04-07T04:52:02;9.53;;;6.10;;
6089;SDS011;3073;42.660;23.316;2023-04-07T04:54:30;8.40;;;6.30;;
6089;SDS011;3073;42.660;23.316;2023-04-07T04:56:57;8.43;;;6.20;;
6089;SDS011;3073;42.660;23.316;2023-04-07T04:59:23;21.67;;;10.03;;
6089;SDS011;3073;42.660;23.316;2023-04-07T05:01:51;20.90;;;12.83;;
6089;SDS011;3073;42.660;23.316;2023-04-07T05:04:17;35.53;;;14.63;;
6089;SDS011;3073;42.660;23.316;2023-04-07T05:06:44;32.93;;;14.63;;
6089;SDS011;3073;42.660;23.316;2023-04-07T05:09:12;34.20;;;17.00;;
6089;SDS011;3073;42.660;23.316;2023-04-07T05:11:39;31.23;;;16.40;;
6089;SDS011;3073;42.660;23.316;2023-04-07T05:14:06;23.53;;;15.30;;
6089;SDS011;3073;42.660;23.316;2023-04-07T05:16:33;23.37;;;15.07;;
6089;SDS011;3073;42.660;23.316;2023-04-07T05:19:00;25.20;;;14.70;;
6089;SDS011;3073;42.660;23.316;2023-04-07T05:21:28;22.07;;;13.10;;
6089;SDS011;3073;42.660;23.316;2023-04-07T05:23:55;23.33;;;14.00;;
6089;SDS011;3073;42.660;23.316;2023-04-07T05:26:24;20.50;;;12.73;;
6089;SDS011;3073;42.660;23.316;2023-04-07T05:28:51;23.30;;;14.80;;
6089;SDS011;3073;42.660;23.316;2023-04-07T05:31:18;24.23;;;13.77;;
6089;SDS011;3073;42.660;23.316;2023-04-07T05:33:44;25.97;;;13.83;;
6089;SDS011;3073;42.660;23.316;2023-04-07T05:36:11;23.70;;;13.43;;
6089;SDS011;3073;42.660;23.316;2023-04-07T05:38:38;18.97;;;12.60;;
6089;SDS011;3073;42.660;23.316;2023-04-07T05:41:05;26.10;;;12.87;;
6089;SDS011;3073;42.660;23.316;2023-04-07T05:43:33;18.13;;;12.73;;
6089;SDS011;3073;42.660;23.316;2023-04-07T05:46:00;31.63;;;12.33;;
6089;SDS011;3073;42.660;23.316;2023-04-07T05:48:27;27.27;;;12.90;;
6089;SDS011;3073;42.660;23.316;2023-04-07T05:50:54;27.70;;;12.97;;
6089;SDS011;3073;42.660;23.316;2023-04-07T05:53:21;21.63;;;13.00;;
6089;SDS011;3073;42.660;23.316;2023-04-07T05:55:48;24.13;;;12.37;;
6089;SDS011;3073;42.660;23.316;2023-04-07T05:58:15;25.23;;;14.10;;
6089;SDS011;3073;42.660;23.316;2023-04-07T06:00:43;15.93;;;11.33;;
6089;SDS011;3073;42.660;23.316;2023-04-07T06:03:10;24.47;;;11.83;;
6089;SDS011;3073;42.660;23.316;2023-04-07T06:05:37;20.60;;;11.30;;
6089;SDS011;3073;42.660;23.316;2023-04-07T06:08:07;22.20;;;13.47;;
6089;SDS011;3073;42.660;23.316;2023-04-07T06:10:34;26.00;;;11.90;;
6089;SDS011;3073;42.660;23.316;2023-04-07T06:13:01;26.60;;;13.67;;
6089;SDS011;3073;42.660;23.316;2023-04-07T06:15:28;19.87;;;13.73;;
6089;SDS011;3073;42.660;23.316;2023-04-07T06:17:56;20.67;;;13.37;;
6089;SDS011;3073;42.660;23.316;2023-04-07T06:20:23;21.90;;;12.30;;
6089;SDS011;3073;42.660;23.316;2023-04-07T06:22:51;18.10;;;11.93;;
6089;SDS011;3073;42.660;23.316;2023-04-07T06:25:18;21.20;;;13.30;;
6089;SDS011;3073;42.660;23.316;2023-04-07T06:27:46;18.07;;;12.47;;
6089;SDS011;3073;42.660;23.316;2023-04-07T06:30:13;24.43;;;13.47;;
6089;SDS011;3073;42.660;23.316;2023-04-07T06:32:40;21.20;;;13.50;;
6089;SDS011;3073;42.660;23.316;2023-04-07T06:35:08;26.40;;;13.90;;
6089;SDS011;3073;42.660;23.316;2023-04-07T06:37:35;29.43;;;13.50;;
6089;SDS011;3073;42.660;23.316;2023-04-07T06:40:03;21.23;;;13.50;;
6089;SDS011;3073;42.660;23.316;2023-04-07T06:42:31;20.20;;;12.60;;
6089;SDS011;3073;42.660;23.316;2023-04-07T06:44:58;12.67;;;7.80;;
6089;SDS011;3073;42.660;23.316;2023-04-07T06:47:24;12.50;;;5.87;;
6089;SDS011;3073;42.660;23.316;2023-04-07T06:49:52;10.10;;;6.87;;
6089;SDS011;3073;42.660;23.316;2023-04-07T06:52:20;11.20;;;6.00;;
6089;SDS011;3073;42.660;23.316;2023-04-07T06:54:47;8.47;;;5.30;;
6089;SDS011;3073;42.660;23.316;2023-04-07T06:57:14;10.83;;;6.50;;
6089;SDS011;3073;42.660;23.316;2023-04-07T06:59:41;9.37;;;5.70;;
6089;SDS011;3073;42.660;23.316;2023-04-07T07:02:08;10.80;;;7.00;;
6089;SDS011;3073;42.660;23.316;2023-04-07T07:04:35;9.27;;;5.80;;
6089;SDS011;3073;42.660;23.316;2023-04-07T07:07:01;10.97;;;6.10;;
6089;SDS011;3073;42.660;23.316;2023-04-07T07:09:30;8.93;;;5.37;;
6089;SDS011;3073;42.660;23.316;2023-04-07T07:11:57;7.40;;;5.70;;
6089;SDS011;3073;42.660;23.316;2023-04-07T07:14:26;9.90;;;6.33;;
6089;SDS011;3073;42.660;23.316;2023-04-07T07:16:53;12.63;;;6.27;;
6089;SDS011;3073;42.660;23.316;2023-04-07T07:19:20;6.67;;;5.13;;
6089;SDS011;3073;42.660;23.316;2023-04-07T07:21:47;9.90;;;6.60;;
6089;SDS011;3073;42.660;23.316;2023-04-07T07:24:14;10.63;;;5.77;;
6089;SDS011;3073;42.660;23.316;2023-04-07T07:26:43;11.60;;;6.43;;
6089;SDS011;3073;42.660;23.316;2023-04-07T07:29:10;13.23;;;6.47;;
6089;SDS011;3073;42.660;23.316;2023-04-07T07:31:37;9.90;;;6.17;;
6089;SDS011;3073;42.660;23.316;2023-04-07T07:34:03;14.33;;;6.30;;
6089;SDS011;3073;42.660;23.316;2023-04-07T07:36:30;7.20;;;5.40;;
6089;SDS011;3073;42.660;23.316;2023-04-07T07:38:57;16.57;;;8.30;;
6089;SDS011;3073;42.660;23.316;2023-04-07T07:41:24;9.27;;;6.70;;
6089;SDS011;3073;42.660;23.316;2023-04-07T07:43:53;8.50;;;5.43;;
6089;SDS011;3073;42.660;23.316;2023-04-07T07:46:20;9.10;;;6.20;;
6089;SDS011;3073;42.660;23.316;2023-04-07T07:48:48;13.33;;;5.93;;
6089;SDS011;3073;42.660;23.316;2023-04-07T07:51:15;14.57;;;5.70;;
6089;SDS011;3073;42.660;23.316;2023-04-07T07:53:42;9.60;;;6.40;;
6089;SDS011;3073;42.660;23.316;2023-04-07T07:56:09;9.40;;;6.07;;
6089;SDS011;3073;42.660;23.316;2023-04-07T07:58:36;10.73;;;6.60;;
6089;SDS011;3073;42.660;23.316;2023-04-07T08:01:05;7.93;;;5.10;;
6089;SDS011;3073;42.660;23.316;2023-04-07T08:03:31;11.63;;;5.90;;
6089;SDS011;3073;42.660;23.316;2023-04-07T08:05:58;9.30;;;5.47;;
6089;SDS011;3073;42.660;23.316;2023-04-07T08:08:26;11.20;;;5.77;;
6089;SDS011;3073;42.660;23.316;2023-04-07T08:10:52;9.50;;;6.40;;
6089;SDS011;3073;42.660;23.316;2023-04-07T08:13:19;12.43;;;5.73;;
6089;SDS011;3073;42.660;23.316;2023-04-07T08:15:46;6.10;;;4.63;;
6089;SDS011;3073;42.660;23.316;2023-04-07T08:18:14;9.37;;;5.57;;
6089;SDS011;3073;42.660;23.316;2023-04-07T08:20:42;9.50;;;5.00;;
6089;SDS011;3073;42.660;23.316;2023-04-07T08:23:08;8.10;;;5.10;;
6089;SDS011;3073;42.660;23.316;2023-04-07T08:25:35;7.90;;;4.60;;
6089;SDS011;3073;42.660;23.316;2023-04-07T08:28:04;10.97;;;6.10;;
6089;SDS011;3073;42.660;23.316;2023-04-07T08:30:33;10.90;;;5.97;;
6089;SDS011;3073;42.660;23.316;2023-04-07T08:33:00;13.97;;;6.70;;
6089;SDS011;3073;42.660;23.316;2023-04-07T08:35:28;7.00;;;5.17;;
6089;SDS011;3073;42.660;23.316;2023-04-07T08:37:55;8.37;;;5.93;;
6089;SDS011;3073;42.660;23.316;2023-04-07T08:40:22;9.30;;;5.50;;
6089;SDS011;3073;42.660;23.316;2023-04-07T08:42:49;8.40;;;5.77;;
6089;SDS011;3073;42.660;23.316;2023-04-07T08:45:17;15.60;;;5.93;;
6089;SDS011;3073;42.660;23.316;2023-04-07T08:47:46;7.23;;;5.27;;
6089;SDS011;3073;42.660;23.316;2023-04-07T08:50:19;9.53;;;5.30;;
6089;SDS011;3073;42.660;23.316;2023-04-07T08:52:49;8.00;;;5.33;;
6089;SDS011;3073;42.660;23.316;2023-04-07T08:55:18;8.37;;;5.00;;
6089;SDS011;3073;42.660;23.316;2023-04-07T08:57:46;6.77;;;4.60;;
6089;SDS011;3073;42.660;23.316;2023-04-07T09:00:13;5.47;;;4.23;;
6089;SDS011;3073;42.660;23.316;2023-04-07T09:02:41;9.90;;;5.10;;
6089;SDS011;3073;42.660;23.316;2023-04-07T09:05:10;9.27;;;4.80;;
6089;SDS011;3073;42.660;23.316;2023-04-07T09:07:38;8.30;;;5.00;;
6089;SDS011;3073;42.660;23.316;2023-04-07T09:10:09;8.03;;;4.30;;
6089;SDS011;3073;42.660;23.316;2023-04-07T09:12:39;12.37;;;4.70;;
6089;SDS011;3073;42.660;23.316;2023-04-07T09:15:09;11.23;;;5.60;;
6089;SDS011;3073;42.660;23.316;2023-04-07T09:17:40;7.00;;;5.47;;
6089;SDS011;3073;42.660;23.316;2023-04-07T09:20:08;8.60;;;5.90;;
6089;SDS011;3073;42.660;23.316;2023-04-07T09:22:36;7.43;;;4.40;;
6089;SDS011;3073;42.660;23.316;2023-04-07T09:25:12;9.53;;;5.37;;
6089;SDS011;3073;42.660;23.316;2023-04-07T09:27:40;7.47;;;4.90;;
6089;SDS011;3073;42.660;23.316;2023-04-07T09:30:20;8.00;;;4.83;;
6089;SDS011;3073;42.660;23.316;2023-04-07T09:32:47;10.07;;;5.40;;
6089;SDS011;3073;42.660;23.316;2023-04-07T09:35:14;8.60;;;5.10;;
6089;SDS011;3073;42.660;23.316;2023-04-07T09:37:41;10.50;;;5.40;;
6089;SDS011;3073;42.660;23.316;2023-04-07T09:40:09;10.63;;;6.67;;
6089;SDS011;3073;42.660;23.316;2023-04-07T09:42:44;10.67;;;6.20;;
6089;SDS011;3073;42.660;23.316;2023-04-07T09:45:12;8.10;;;5.90;;
6089;SDS011;3073;42.660;23.316;2023-04-07T09:47:50;8.87;;;5.70;;
6089;SDS011;3073;42.660;23.316;2023-04-07T09:50:21;7.60;;;6.10;;
6089;SDS011;3073;42.660;23.316;2023-04-07T09:52:56;13.07;;;6.40;;
6089;SDS011;3073;42.660;23.316;2023-04-07T09:55:23;7.20;;;5.80;;
6089;SDS011;3073;42.660;23.316;2023-04-07T09:57:52;8.90;;;6.27;;
6089;SDS011;3073;42.660;23.316;2023-04-07T10:00:20;9.13;;;5.97;;
6089;SDS011;3073;42.660;23.316;2023-04-07T10:02:47;8.33;;;6.53;;
6089;SDS011;3073;42.660;23.316;2023-04-07T10:05:15;11.30;;;6.47;;
6089;SDS011;3073;42.660;23.316;2023-04-07T10:07:45;11.43;;;6.13;;
6089;SDS011;3073;42.660;23.316;2023-04-07T10:10:12;13.27;;;6.50;;
6089;SDS011;3073;42.660;23.316;2023-04-07T10:12:41;8.00;;;5.83;;
6089;SDS011;3073;42.660;23.316;2023-04-07T10:15:13;6.93;;;5.93;;
6089;SDS011;3073;42.660;23.316;2023-04-07T10:17:45;7.83;;;5.60;;
6089;SDS011;3073;42.660;23.316;2023-04-07T10:20:14;10.17;;;6.97;;
6089;SDS011;3073;42.660;23.316;2023-04-07T10:22:48;7.13;;;5.77;;
6089;SDS011;3073;42.660;23.316;2023-04-07T10:25:20;7.40;;;6.10;;
6089;SDS011;3073;42.660;23.316;2023-04-07T10:27:51;12.50;;;6.60;;
6089;SDS011;3073;42.660;23.316;2023-04-07T10:30:29;9.53;;;6.43;;
6089;SDS011;3073;42.660;23.316;2023-04-07T10:33:03;7.77;;;5.70;;
6089;SDS011;3073;42.660;23.316;2023-04-07T10:41:47;15.17;;;7.33;;
6089;SDS011;3073;42.660;23.316;2023-04-07T10:47:13;10.20;;;5.40;;
6089;SDS011;3073;42.660;23.316;2023-04-07T10:50:13;9.90;;;6.23;;
6089;SDS011;3073;42.660;23.316;2023-04-07T10:52:43;12.87;;;7.10;;
6089;SDS011;3073;42.660;23.316;2023-04-07T10:55:30;15.20;;;7.07;;
6089;SDS011;3073;42.660;23.316;2023-04-07T10:58:18;10.00;;;6.93;;
6089;SDS011;3073;42.660;23.316;2023-04-07T11:03:54;8.47;;;6.50;;
6089;SDS011;3073;42.660;23.316;2023-04-07T11:06:25;10.07;;;6.50;;
6089;SDS011;3073;42.660;23.316;2023-04-07T11:08:52;12.87;;;7.10;;
6089;SDS011;3073;42.660;23.316;2023-04-07T11:14:08;9.47;;;6.90;;
6089;SDS011;3073;42.660;23.316;2023-04-07T11:16:44;9.57;;;6.57;;
6089;SDS011;3073;42.660;23.316;2023-04-07T11:19:12;8.23;;;6.23;;
6089;SDS011;3073;42.660;23.316;2023-04-07T11:21:39;16.60;;;7.90;;
6089;SDS011;3073;42.660;23.316;2023-04-07T11:24:06;11.23;;;6.83;;
6089;SDS011;3073;42.660;23.316;2023-04-07T11:26:36;8.37;;;6.67;;
6089;SDS011;3073;42.660;23.316;2023-04-07T11:29:04;10.40;;;7.43;;
6089;SDS011;3073;42.660;23.316;2023-04-07T11:31:34;9.77;;;6.70;;
6089;SDS011;3073;42.660;23.316;2023-04-07T11:34:02;11.20;;;7.33;;
6089;SDS011;3073;42.660;23.316;2023-04-07T11:36:38;9.70;;;6.93;;
6089;SDS011;3073;42.660;23.316;2023-04-07T11:39:16;15.10;;;8.00;;
6089;SDS011;3073;42.660;23.316;2023-04-07T11:41:48;12.40;;;7.33;;
6089;SDS011;3073;42.660;23.316;2023-04-07T11:44:16;9.33;;;6.90;;
6089;SDS011;3073;42.660;23.316;2023-04-07T11:46:51;10.73;;;6.83;;
6089;SDS011;3073;42.660;23.316;2023-04-07T11:49:18;9.23;;;7.07;;
6089;SDS011;3073;42.660;23.316;2023-04-07T11:51:55;13.57;;;7.80;;
6089;SDS011;3073;42.660;23.316;2023-04-07T11:54:23;9.63;;;7.80;;
6089;SDS011;3073;42.660;23.316;2023-04-07T11:56:50;10.60;;;7.67;;
6089;SDS011;3073;42.660;23.316;2023-04-07T11:59:20;10.60;;;8.20;;
6089;SDS011;3073;42.660;23.316;2023-04-07T12:01:48;13.77;;;7.80;;
6089;SDS011;3073;42.660;23.316;2023-04-07T12:04:16;14.00;;;7.37;;
6089;SDS011;3073;42.660;23.316;2023-04-07T12:06:44;11.57;;;7.67;;
6089;SDS011;3073;42.660;23.316;2023-04-07T12:09:26;12.27;;;8.33;;
6089;SDS011;3073;42.660;23.316;2023-04-07T12:11:58;10.80;;;7.63;;
6089;SDS011;3073;42.660;23.316;2023-04-07T12:14:25;17.17;;;7.73;;
6089;SDS011;3073;42.660;23.316;2023-04-07T12:16:52;15.73;;;7.07;;
6089;SDS011;3073;42.660;23.316;2023-04-07T12:19:22;12.73;;;8.30;;
6089;SDS011;3073;42.660;23.316;2023-04-07T12:24:35;16.37;;;8.50;;
6089;SDS011;3073;42.660;23.316;2023-04-07T12:27:02;10.63;;;8.00;;
6089;SDS011;3073;42.660;23.316;2023-04-07T12:29:29;14.00;;;7.70;;
6089;SDS011;3073;42.660;23.316;2023-04-07T12:31:56;19.00;;;8.73;;
6089;SDS011;3073;42.660;23.316;2023-04-07T12:34:26;9.57;;;7.47;;
6089;SDS011;3073;42.660;23.316;2023-04-07T12:36:53;8.10;;;6.83;;
6089;SDS011;3073;42.660;23.316;2023-04-07T12:39:20;11.03;;;7.87;;
6089;SDS011;3073;42.660;23.316;2023-04-07T12:41:48;10.50;;;7.70;;
6089;SDS011;3073;42.660;23.316;2023-04-07T12:44:20;10.70;;;7.23;;
6089;SDS011;3073;42.660;23.316;2023-04-07T12:46:50;12.90;;;9.27;;
6089;SDS011;3073;42.660;23.316;2023-04-07T12:49:17;13.10;;;8.03;;
6089;SDS011;3073;42.660;23.316;2023-04-07T12:51:46;13.53;;;8.50;;
6089;SDS011;3073;42.660;23.316;2023-04-07T12:54:13;9.90;;;7.73;;
6089;SDS011;3073;42.660;23.316;2023-04-07T12:56:40;11.83;;;8.03;;
6089;SDS011;3073;42.660;23.316;2023-04-07T12:59:08;11.53;;;8.70;;
6089;SDS011;3073;42.660;23.316;2023-04-07T13:01:35;18.30;;;8.60;;
6089;SDS011;3073;42.660;23.316;2023-04-07T13:04:02;17.17;;;7.60;;
6089;SDS011;3073;42.660;23.316;2023-04-07T13:06:29;14.00;;;8.13;;
6089;SDS011;3073;42.660;23.316;2023-04-07T13:08:56;13.70;;;8.70;;
6089;SDS011;3073;42.660;23.316;2023-04-07T13:11:23;13.70;;;8.73;;
6089;SDS011;3073;42.660;23.316;2023-04-07T13:13:51;13.70;;;8.53;;
6089;SDS011;3073;42.660;23.316;2023-04-07T13:16:20;12.40;;;7.93;;
6089;SDS011;3073;42.660;23.316;2023-04-07T13:18:47;13.03;;;9.10;;
6089;SDS011;3073;42.660;23.316;2023-04-07T13:21:13;13.13;;;9.50;;
6089;SDS011;3073;42.660;23.316;2023-04-07T13:23:40;11.90;;;9.00;;
6089;SDS011;3073;42.660;23.316;2023-04-07T13:26:10;10.23;;;7.20;;
6089;SDS011;3073;42.660;23.316;2023-04-07T13:28:40;9.50;;;7.63;;
6089;SDS011;3073;42.660;23.316;2023-04-07T13:31:12;11.43;;;7.77;;
6089;SDS011;3073;42.660;23.316;2023-04-07T13:33:44;12.20;;;8.80;;
6089;SDS011;3073;42.660;23.316;2023-04-07T13:36:24;10.50;;;7.40;;
6089;SDS011;3073;42.660;23.316;2023-04-07T13:38:56;14.07;;;8.03;;
6089;SDS011;3073;42.660;23.316;2023-04-07T13:41:23;11.83;;;8.60;;
6089;SDS011;3073;42.660;23.316;2023-04-07T13:43:53;12.57;;;8.97;;
6089;SDS011;3073;42.660;23.316;2023-04-07T13:46:20;14.97;;;8.13;;
6089;SDS011;3073;42.660;23.316;2023-04-07T13:48:49;11.00;;;8.10;;
6089;SDS011;3073;42.660;23.316;2023-04-07T13:51:30;11.73;;;7.83;;
6089;SDS011;3073;42.660;23.316;2023-04-07T13:53:58;12.00;;;8.57;;
6089;SDS011;3073;42.660;23.316;2023-04-07T13:56:25;11.73;;;8.57;;
6089;SDS011;3073;42.660;23.316;2023-04-07T13:58:52;10.87;;;7.47;;
6089;SDS011;3073;42.660;23.316;2023-04-07T14:01:19;11.73;;;7.50;;
6089;SDS011;3073;42.660;23.316;2023-04-07T14:03:46;15.03;;;7.80;;
6089;SDS011;3073;42.660;23.316;2023-04-07T14:06:14;9.67;;;7.73;;
6089;SDS011;3073;42.660;23.316;2023-04-07T14:08:41;12.80;;;7.43;;
6089;SDS011;3073;42.660;23.316;2023-04-07T14:11:08;16.47;;;8.40;;
6089;SDS011;3073;42.660;23.316;2023-04-07T14:13:38;13.30;;;7.90;;
6089;SDS011;3073;42.660;23.316;2023-04-07T14:16:05;13.13;;;8.80;;
6089;SDS011;3073;42.660;23.316;2023-04-07T14:18:33;14.97;;;8.93;;
6089;SDS011;3073;42.660;23.316;2023-04-07T14:21:02;10.40;;;8.20;;
6089;SDS011;3073;42.660;23.316;2023-04-07T14:23:33;14.43;;;7.67;;
6089;SDS011;3073;42.660;23.316;2023-04-07T14:26:00;14.80;;;8.70;;
6089;SDS011;3073;42.660;23.316;2023-04-07T14:28:28;16.27;;;8.50;;
6089;SDS011;3073;42.660;23.316;2023-04-07T14:30:57;11.60;;;8.60;;
6089;SDS011;3073;42.660;23.316;2023-04-07T14:33:24;10.67;;;7.70;;
6089;SDS011;3073;42.660;23.316;2023-04-07T14:35:52;15.40;;;9.80;;
6089;SDS011;3073;42.660;23.316;2023-04-07T14:38:18;11.60;;;8.60;;
6089;SDS011;3073;42.660;23.316;2023-04-07T14:40:50;11.53;;;8.80;;
6089;SDS011;3073;42.660;23.316;2023-04-07T14:43:17;17.50;;;8.60;;
6089;SDS011;3073;42.660;23.316;2023-04-07T14:45:44;14.10;;;8.20;;
6089;SDS011;3073;42.660;23.316;2023-04-07T14:48:11;12.90;;;8.63;;
6089;SDS011;3073;42.660;23.316;2023-04-07T14:50:38;11.03;;;7.77;;
6089;SDS011;3073;42.660;23.316;2023-04-07T14:53:05;14.80;;;8.30;;
6089;SDS011;3073;42.660;23.316;2023-04-07T14:55:32;14.60;;;8.40;;
6089;SDS011;3073;42.660;23.316;2023-04-07T14:58:01;12.27;;;8.73;;
6089;SDS011;3073;42.660;23.316;2023-04-07T15:00:28;11.90;;;8.67;;
6089;SDS011;3073;42.660;23.316;2023-04-07T15:02:55;14.90;;;8.67;;
6089;SDS011;3073;42.660;23.316;2023-04-07T15:05:22;13.20;;;8.40;;
6089;SDS011;3073;42.660;23.316;2023-04-07T15:07:50;12.90;;;8.70;;
6089;SDS011;3073;42.660;23.316;2023-04-07T15:10:17;19.07;;;8.90;;
6089;SDS011;3073;42.660;23.316;2023-04-07T15:12:44;14.00;;;8.90;;
6089;SDS011;3073;42.660;23.316;2023-04-07T15:15:14;15.13;;;9.40;;
6089;SDS011;3073;42.660;23.316;2023-04-07T15:17:41;11.90;;;8.23;;